METAR Data
IDs: Format: Raw Decoded Include TAF

Data at: 2220 UTC 20 Nov 2018

KEBG 202155Z AUTO 34006KT 10SM OVC038 16/06 A3026 RMK AO2 T01600063
KEBG 202135Z AUTO 36008KT 10SM OVC036 16/06 A3025 RMK AO2 T01600063
KEBG 202115Z AUTO 35009KT 10SM OVC036 16/06 A3025 RMK AO2 T01610064
KEBG 202055Z AUTO 33009KT 10SM OVC034 16/07 A3025 RMK AO2 T01580065
KEBG 202035Z AUTO 34007KT 10SM OVC034 16/07 A3025 RMK AO2 T01560065
KEBG 202015Z AUTO 34009KT 10SM OVC034 15/07 A3026 RMK AO2 T01540065
KEBG 201955Z AUTO 35008KT 10SM OVC034 15/06 A3027 RMK AO2 T01500063
KEBG 201935Z AUTO 35010KT 10SM OVC032 15/07 A3027 RMK AO2 T01500066
KEBG 201915Z AUTO 33008KT 10SM OVC032 15/07 A3028 RMK AO2 T01480070
KEBG 201855Z AUTO 34009KT 10SM OVC032 15/07 A3029 RMK AO2 T01480072
KEBG 201835Z AUTO 33008KT 10SM OVC028 14/07 A3030 RMK AO2 T01430073
KEBG 201815Z AUTO 35008KT 10SM OVC026 14/07 A3031 RMK AO2 T01420073
KEBG 201755Z AUTO 35010KT 10SM OVC026 13/07 A3032 RMK AO2 T01340074 10134 20112
KEBG 201735Z AUTO 35008KT 10SM OVC024 13/08 A3034 RMK AO2 T01320075
KEBG 201715Z AUTO 35007KT 10SM OVC024 13/08 A3034 RMK AO2 T01320077
KEBG 201655Z AUTO 34008KT 10SM OVC022 13/08 A3034 RMK AO2 T01300081
KEBG 201635Z AUTO 34008KT 10SM OVC026 13/08 A3035 RMK AO2 T01300079
KEBG 201615Z AUTO 34006KT 10SM OVC026 13/08 A3035 RMK AO2 T01270081
KEBG 201555Z AUTO 35007KT 10SM OVC024 13/08 A3034 RMK AO2 T01270078
KEBG 201535Z AUTO 35008KT 10SM OVC022 13/08 A3033 RMK AO2 T01270084
KEBG 201515Z AUTO 35008KT 10SM OVC020 12/09 A3033 RMK AO2 T01240085
KEBG 201455Z AUTO 35006KT 10SM OVC020 12/09 A3032 RMK AO2 T01220088
KEBG 201435Z AUTO 34007KT 10SM OVC020 12/09 A3031 RMK AO2 T01210088
KEBG 201415Z AUTO 35007KT 10SM OVC020 12/09 A3030 RMK AO2 T01200090
KEBG 201355Z AUTO 35007KT 10SM OVC020 12/09 A3029 RMK AO2 T01190093
KEBG 201335Z AUTO 35006KT 10SM OVC020 12/09 A3028 RMK AO2 T01180093
KEBG 201315Z AUTO 34006KT 10SM OVC020 12/10 A3028 RMK AO2 T01170095
KEBG 201255Z AUTO 34006KT 10SM OVC018 12/10 A3026 RMK AO2 T01160096
KEBG 201235Z AUTO 34006KT 7SM OVC018 12/10 A3025 RMK AO2 T01150099
KEBG 201215Z AUTO 34006KT 7SM OVC018 11/10 A3025 RMK AO2 T01140100
KEBG 201155Z AUTO 34005KT 4SM BR BKN008 OVC016 11/10 A3024 RMK AO2 60001 70005 T01120100 10113 20111
KEBG 201135Z AUTO 34008KT 3SM BR OVC008 11/10 A3023 RMK AO2 T01120101
KEBG 201115Z AUTO 34004KT 4SM BR BKN010 OVC013 11/10 A3023 RMK AO2 T01120101
KEBG 201055Z AUTO 34006KT 5SM BR OVC005 11/10 A3022 RMK AO2 T01120101
KEBG 201035Z AUTO 35007KT 3SM BR OVC005 11/10 A3022 RMK AO2 T01120102
KEBG 201015Z AUTO 35007KT 4SM BR OVC005 11/10 A3021 RMK AO2 T01110101
KEBG 200955Z AUTO 35008KT 3SM BR OVC005 11/10 A3020 RMK AO2 T01110101
KEBG 200935Z AUTO 35009KT 3SM BR OVC005 11/10 A3021 RMK AO2 T01120102
KEBG 200915Z AUTO 34009KT 3SM BR OVC005 11/10 A3020 RMK AO2 LTG DSNT E T01120102
KEBG 200855Z AUTO 33007KT 3SM BR OVC005 11/10 A3021 RMK AO2 60001 T01110100
KEBG 200835Z AUTO 34007KT 4SM BR OVC005 11/10 A3021 RMK AO2 T01120102
KEBG 200815Z AUTO 35009KT 4SM BR OVC003 11/10 A3021 RMK AO2 T01120102
KEBG 200755Z AUTO 34009KT 3SM DZ OVC003 11/10 A3021 RMK AO2 P0001 T01130103
KEBG 200735Z AUTO 34010KT 4SM DZ OVC003 11/10 A3021 RMK AO2 T01120102
KEBG 200715Z AUTO 35006KT 3SM BR OVC003 11/10 A3021 RMK AO2 T01120102
KEBG 200655Z AUTO 34010KT 5SM BR OVC003 11/10 A3020 RMK AO2 T01130103
KEBG 200635Z AUTO 35006KT 4SM BR OVC005 11/10 A3021 RMK AO2 T01120102
KEBG 200610Z AUTO 34006KT 4SM BR OVC005 11/10 A3021 RMK AO2 T01120102
KEBG 200555Z AUTO 34007KT 4SM BR OVC005 11/10 A3021 RMK AO2 60002 T01120102 10113 20110 401330110
KEBG 200535Z AUTO 34006KT 4SM BR OVC005 11/10 A3021 RMK AO2 T01120102
KEBG 200515Z AUTO 34006KT 5SM BR OVC005 11/10 A3021 RMK AO2 T01110100
KEBG 200455Z AUTO 33008KT 4SM RA OVC005 11/10 A3021 RMK AO2 T01100100
KEBG 200435Z AUTO 33005KT 4SM BR OVC005 11/10 A3021 RMK AO2 T01110100
KEBG 200415Z AUTO 35006KT 4SM BR OVC003 11/10 A3020 RMK AO2 T01110100
KEBG 200355Z AUTO 34006KT 3SM BR OVC003 11/10 A3021 RMK AO2 T01110100
KEBG 200335Z AUTO 34004KT 5SM BR OVC005 11/10 A3021 RMK AO2 T01120100
KEBG 200315Z AUTO 34005KT 7SM OVC005 11/10 A3020 RMK AO2 T01110100
KEBG 200255Z AUTO 35007KT 10SM OVC005 11/10 A3019 RMK AO2 60002 T01120100
KEBG 200235Z AUTO 35006KT 10SM OVC005 11/10 A3020 RMK AO2 T01120101
KEBG 200215Z AUTO 33006KT 7SM OVC005 11/10 A3019 RMK AO2 T01120101
KEBG 200155Z AUTO 33006KT 7SM OVC005 11/10 A3019 RMK AO2 T01120102
KEBG 200135Z AUTO 34006KT 7SM OVC005 11/10 A3018 RMK AO2 T01110101
KEBG 200115Z AUTO 35005KT 7SM OVC005 11/10 A3017 RMK AO2 T01120102
KEBG 200055Z AUTO 36005KT 5SM BR OVC003 11/10 A3015 RMK AO2 P0002 T01120102
KEBG 200035Z AUTO 35006KT 4SM DZ OVC003 11/10 A3015 RMK AO2 P0002 T01130103
KEBG 200015Z AUTO 36007KT 3SM +DZ OVC003 11/10 A3015 RMK AO2 P0001 T01130103
KEBG 192355Z AUTO 35006KT 3SM -RA OVC003 11/10 A3015 RMK AO2 60001 T01130102 10124 20112
KEBG 192335Z AUTO 36006KT 4SM BR OVC003 11/10 A3014 RMK AO2 T01130102
KEBG 192315Z AUTO 36007KT 4SM BR OVC003 12/10 A3013 RMK AO2 T01150103
KEBG 192255Z AUTO 36007KT 3SM BR OVC005 12/10 A3013 RMK AO2 T01150103
KEBG 192235Z AUTO 35009KT 3SM BR OVC005 12/10 A3011 RMK AO2 T01160104
KEBG 192215Z AUTO 34007KT 7SM OVC007 12/10 A3012 RMK AO2 T01160102
KEBG 192155Z AUTO 33009KT 7SM OVC007 12/10 A3011 RMK AO2 T01170104
KEBG 192135Z AUTO 36007KT 7SM OVC007 12/10 A3010 RMK AO2 T01160103
KEBG 192115Z AUTO 35008KT 5SM BR OVC005 12/11 A3010 RMK AO2 T01190106
KEBG 192055Z AUTO 01009KT 4SM -DZ OVC005 12/11 A3010 RMK AO2 P0001 60001 T01180106
KEBG 192035Z AUTO 35006KT 3SM DZ OVC005 12/11 A3012 RMK AO2 T01190106
KEBG 192015Z AUTO 35006KT 2 1/2SM DZ OVC005 12/11 A3012 RMK AO2 T01190107
KEBG 191955Z AUTO 34007KT 1 3/4SM DZ OVC005 12/11 A3013 RMK AO2 T01180106
KEBG 191935Z AUTO 34009KT 1 3/4SM DZ OVC005 12/11 A3014 RMK AO2 T01180106
KEBG 191915Z AUTO 33008KT 1 1/2SM BR OVC005 12/11 A3014 RMK AO2 T01200107
KEBG 191855Z AUTO 33010KT 1 1/2SM BR OVC005 12/11 A3014 RMK AO2 T01210107
KEBG 191835Z AUTO 34008KT 7SM OVC007 12/11 A3015 RMK AO2 T01220107
KEBG 191815Z AUTO 34008KT 10SM DZ OVC005 12/11 A3015 RMK AO2 T01240108
KEBG 191755Z AUTO 32008KT 10SM OVC005 12/11 A3015 RMK AO2 60001 T01220106 10125 20115
KEBG 191735Z AUTO 35008KT 10SM OVC005 12/11 A3016 RMK AO2 T01240109
KEBG 191715Z AUTO 33010KT 10SM OVC005 12/11 A3018 RMK AO2 T01210107
KEBG 191655Z AUTO 34008KT 10SM OVC005 12/11 A3018 RMK AO2 T01210109
KEBG 191635Z AUTO 34009KT 7SM OVC005 12/11 A3018 RMK AO2 T01200108
KEBG 191615Z AUTO 34009KT 5SM BR OVC003 12/11 A3018 RMK AO2 T01180107
KEBG 191555Z AUTO 35008KT 3SM BR OVC005 12/11 A3017 RMK AO2 T01160105
KEBG 191535Z AUTO 34007KT 3SM BR OVC005 12/11 A3018 RMK AO2 T01160105
KEBG 191515Z AUTO 34008KT 2 1/2SM BR OVC003 12/11 A3018 RMK AO2 T01160105
KEBG 191455Z AUTO 35008KT 4SM BR OVC005 12/11 A3017 RMK AO2 P0001 60001 T01160105
KEBG 191435Z AUTO 34007KT 5SM BR OVC005 12/11 A3016 RMK AO2 P0001 T01160105
KEBG 191415Z AUTO 35008KT 3SM BR OVC003 12/11 A3015 RMK AO2 T01150105
KEBG 191355Z AUTO 35010KT 3SM BR OVC003 12/11 A3014 RMK AO2 T01180108
KEBG 191335Z AUTO 35009KT 3SM BR OVC005 12/11 A3014 RMK AO2 T01190109
KEBG 191315Z AUTO 35008KT 5SM BR OVC003 12/11 A3013 RMK AO2 T01180108
KEBG 191255Z AUTO 36008KT 5SM BR OVC003 12/11 A3012 RMK AO2 T01170107
KEBG 191235Z AUTO 34008KT 4SM BR OVC003 12/11 A3012 RMK AO2 T01170107
KEBG 191215Z AUTO 35009KT 3SM BR OVC003 12/11 A3011 RMK AO2 T01170107
KEBG 191155Z AUTO 35010KT 4SM BR BKN003 OVC009 12/11 A3011 RMK AO2 70023 T01170107 10133 20117
KEBG 191135Z AUTO 35010KT 3SM BR OVC003 12/11 A3011 RMK AO2 T01180110
KEBG 191115Z AUTO 34009KT 2 1/2SM -DZ OVC003 12/11 A3011 RMK AO2 T01200110
KEBG 191055Z AUTO 33009KT 2SM BR OVC003 12/11 A3010 RMK AO2 T01210111
KEBG 191035Z AUTO 35006KT 2 1/2SM BR OVC003 12/11 A3010 RMK AO2 T01230113